sensor_id;sensor_type;location;lat;lon;timestamp;P1;durP1;ratioP1;P2;durP2;ratioP2
4636;SDS011;2331;48.806;9.140;2022-08-11T00:00:59;3.73;;;2.07;;
4636;SDS011;2331;48.806;9.140;2022-08-11T00:03:32;5.70;;;2.13;;
4636;SDS011;2331;48.806;9.140;2022-08-11T00:05:59;3.00;;;2.07;;
4636;SDS011;2331;48.806;9.140;2022-08-11T00:08:29;4.37;;;2.00;;
4636;SDS011;2331;48.806;9.140;2022-08-11T00:10:58;3.37;;;1.90;;
4636;SDS011;2331;48.806;9.140;2022-08-11T00:13:31;4.27;;;2.17;;
4636;SDS011;2331;48.806;9.140;2022-08-11T00:15:59;7.53;;;2.37;;
4636;SDS011;2331;48.806;9.140;2022-08-11T00:18:27;3.73;;;2.10;;
4636;SDS011;2331;48.806;9.140;2022-08-11T00:20:56;3.37;;;1.90;;
4636;SDS011;2331;48.806;9.140;2022-08-11T00:23:25;4.90;;;1.90;;
4636;SDS011;2331;48.806;9.140;2022-08-11T00:25:54;2.80;;;2.07;;
4636;SDS011;2331;48.806;9.140;2022-08-11T00:28:22;3.40;;;1.90;;
4636;SDS011;2331;48.806;9.140;2022-08-11T00:30:50;5.00;;;2.57;;
4636;SDS011;2331;48.806;9.140;2022-08-11T00:33:19;5.60;;;2.27;;
4636;SDS011;2331;48.806;9.140;2022-08-11T00:35:48;5.23;;;2.00;;
4636;SDS011;2331;48.806;9.140;2022-08-11T00:38:16;2.90;;;1.83;;
4636;SDS011;2331;48.806;9.140;2022-08-11T00:40:50;4.77;;;2.30;;
4636;SDS011;2331;48.806;9.140;2022-08-11T00:43:23;3.00;;;2.03;;
4636;SDS011;2331;48.806;9.140;2022-08-11T00:46:08;3.47;;;2.10;;
4636;SDS011;2331;48.806;9.140;2022-08-11T00:48:44;4.43;;;2.03;;
4636;SDS011;2331;48.806;9.140;2022-08-11T00:51:23;3.80;;;2.23;;
4636;SDS011;2331;48.806;9.140;2022-08-11T00:54:00;3.00;;;2.13;;
4636;SDS011;2331;48.806;9.140;2022-08-11T00:56:43;4.37;;;2.17;;
4636;SDS011;2331;48.806;9.140;2022-08-11T00:59:46;3.73;;;1.90;;
4636;SDS011;2331;48.806;9.140;2022-08-11T01:05:36;4.20;;;2.60;;
4636;SDS011;2331;48.806;9.140;2022-08-11T01:11:36;4.90;;;2.30;;
4636;SDS011;2331;48.806;9.140;2022-08-11T01:14:43;2.80;;;1.90;;
4636;SDS011;2331;48.806;9.140;2022-08-11T01:20:45;3.90;;;2.43;;
4636;SDS011;2331;48.806;9.140;2022-08-11T01:26:59;4.03;;;2.30;;
4636;SDS011;2331;48.806;9.140;2022-08-11T01:33:55;4.10;;;2.33;;
4636;SDS011;2331;48.806;9.140;2022-08-11T01:40:13;3.50;;;2.40;;
4636;SDS011;2331;48.806;9.140;2022-08-11T01:46:14;4.53;;;2.47;;
4636;SDS011;2331;48.806;9.140;2022-08-11T01:48:53;4.30;;;2.13;;
4636;SDS011;2331;48.806;9.140;2022-08-11T01:51:37;2.90;;;1.73;;
4636;SDS011;2331;48.806;9.140;2022-08-11T01:54:31;3.90;;;2.13;;
4636;SDS011;2331;48.806;9.140;2022-08-11T01:57:15;3.37;;;2.50;;
4636;SDS011;2331;48.806;9.140;2022-08-11T01:59:53;4.67;;;2.70;;
4636;SDS011;2331;48.806;9.140;2022-08-11T02:02:35;3.63;;;2.50;;
4636;SDS011;2331;48.806;9.140;2022-08-11T02:05:17;6.77;;;2.30;;
4636;SDS011;2331;48.806;9.140;2022-08-11T02:08:09;3.60;;;2.20;;
4636;SDS011;2331;48.806;9.140;2022-08-11T02:11:04;3.73;;;2.50;;
4636;SDS011;2331;48.806;9.140;2022-08-11T02:14:01;4.87;;;2.27;;
4636;SDS011;2331;48.806;9.140;2022-08-11T02:17:11;4.07;;;2.50;;
4636;SDS011;2331;48.806;9.140;2022-08-11T02:19:47;3.53;;;2.10;;
4636;SDS011;2331;48.806;9.140;2022-08-11T02:22:38;6.30;;;2.30;;
4636;SDS011;2331;48.806;9.140;2022-08-11T02:25:35;5.00;;;2.37;;
4636;SDS011;2331;48.806;9.140;2022-08-11T02:28:06;6.30;;;2.73;;
4636;SDS011;2331;48.806;9.140;2022-08-11T02:30:51;4.90;;;2.70;;
4636;SDS011;2331;48.806;9.140;2022-08-11T02:33:42;3.60;;;2.20;;
4636;SDS011;2331;48.806;9.140;2022-08-11T02:36:24;7.63;;;2.10;;
4636;SDS011;2331;48.806;9.140;2022-08-11T02:39:18;5.20;;;2.40;;
4636;SDS011;2331;48.806;9.140;2022-08-11T02:41:49;4.00;;;2.67;;
4636;SDS011;2331;48.806;9.140;2022-08-11T02:44:50;4.67;;;2.57;;
4636;SDS011;2331;48.806;9.140;2022-08-11T02:47:47;4.70;;;2.77;;
4636;SDS011;2331;48.806;9.140;2022-08-11T02:50:58;4.30;;;2.27;;
4636;SDS011;2331;48.806;9.140;2022-08-11T02:53:43;4.57;;;2.50;;
4636;SDS011;2331;48.806;9.140;2022-08-11T02:56:18;5.33;;;2.50;;
4636;SDS011;2331;48.806;9.140;2022-08-11T02:59:18;5.50;;;2.53;;
4636;SDS011;2331;48.806;9.140;2022-08-11T03:02:09;4.03;;;2.30;;
4636;SDS011;2331;48.806;9.140;2022-08-11T03:05:20;3.93;;;2.10;;
4636;SDS011;2331;48.806;9.140;2022-08-11T03:08:02;3.60;;;2.40;;
4636;SDS011;2331;48.806;9.140;2022-08-11T03:10:48;3.33;;;2.33;;
4636;SDS011;2331;48.806;9.140;2022-08-11T03:13:40;4.27;;;2.50;;
4636;SDS011;2331;48.806;9.140;2022-08-11T03:16:47;6.97;;;2.70;;
4636;SDS011;2331;48.806;9.140;2022-08-11T03:19:27;3.53;;;2.33;;
4636;SDS011;2331;48.806;9.140;2022-08-11T03:22:09;3.60;;;2.20;;
4636;SDS011;2331;48.806;9.140;2022-08-11T03:25:05;4.07;;;2.50;;
4636;SDS011;2331;48.806;9.140;2022-08-11T03:27:39;5.97;;;2.40;;
4636;SDS011;2331;48.806;9.140;2022-08-11T03:30:13;4.20;;;2.40;;
4636;SDS011;2331;48.806;9.140;2022-08-11T03:32:51;6.70;;;2.50;;
4636;SDS011;2331;48.806;9.140;2022-08-11T03:35:44;5.47;;;2.70;;
4636;SDS011;2331;48.806;9.140;2022-08-11T03:38:23;4.20;;;2.80;;
4636;SDS011;2331;48.806;9.140;2022-08-11T03:41:07;4.13;;;2.67;;
4636;SDS011;2331;48.806;9.140;2022-08-11T03:44:12;4.17;;;2.70;;
4636;SDS011;2331;48.806;9.140;2022-08-11T03:47:33;4.23;;;2.67;;
4636;SDS011;2331;48.806;9.140;2022-08-11T03:50:14;4.57;;;2.70;;
4636;SDS011;2331;48.806;9.140;2022-08-11T03:52:52;5.17;;;2.50;;
4636;SDS011;2331;48.806;9.140;2022-08-11T03:55:39;5.17;;;2.57;;
4636;SDS011;2331;48.806;9.140;2022-08-11T03:58:57;4.40;;;2.60;;
4636;SDS011;2331;48.806;9.140;2022-08-11T04:02:07;4.70;;;2.73;;
4636;SDS011;2331;48.806;9.140;2022-08-11T04:07:57;3.70;;;2.53;;
4636;SDS011;2331;48.806;9.140;2022-08-11T04:17:39;3.43;;;2.33;;
4636;SDS011;2331;48.806;9.140;2022-08-11T04:20:40;4.00;;;2.83;;
4636;SDS011;2331;48.806;9.140;2022-08-11T04:29:22;4.20;;;2.73;;
4636;SDS011;2331;48.806;9.140;2022-08-11T04:32:15;5.97;;;2.90;;
4636;SDS011;2331;48.806;9.140;2022-08-11T04:34:59;4.13;;;2.87;;
4636;SDS011;2331;48.806;9.140;2022-08-11T04:37:52;5.33;;;2.83;;
4636;SDS011;2331;48.806;9.140;2022-08-11T04:40:48;4.93;;;2.90;;
4636;SDS011;2331;48.806;9.140;2022-08-11T04:50:17;4.20;;;3.03;;
4636;SDS011;2331;48.806;9.140;2022-08-11T04:53:18;5.30;;;3.07;;
4636;SDS011;2331;48.806;9.140;2022-08-11T04:56:13;4.60;;;3.20;;
4636;SDS011;2331;48.806;9.140;2022-08-11T05:05:59;4.83;;;3.00;;
4636;SDS011;2331;48.806;9.140;2022-08-11T05:09:20;6.20;;;3.07;;
4636;SDS011;2331;48.806;9.140;2022-08-11T05:14:47;4.30;;;2.80;;
4636;SDS011;2331;48.806;9.140;2022-08-11T05:17:36;7.03;;;3.20;;
4636;SDS011;2331;48.806;9.140;2022-08-11T05:20:27;5.20;;;3.33;;
4636;SDS011;2331;48.806;9.140;2022-08-11T05:23:24;3.67;;;2.90;;
4636;SDS011;2331;48.806;9.140;2022-08-11T05:26:11;5.00;;;2.90;;
4636;SDS011;2331;48.806;9.140;2022-08-11T05:32:15;4.20;;;3.00;;
4636;SDS011;2331;48.806;9.140;2022-08-11T05:35:02;5.83;;;3.10;;
4636;SDS011;2331;48.806;9.140;2022-08-11T05:37:40;4.40;;;3.00;;
4636;SDS011;2331;48.806;9.140;2022-08-11T05:40:27;5.40;;;3.30;;
4636;SDS011;2331;48.806;9.140;2022-08-11T05:43:12;5.10;;;2.70;;
4636;SDS011;2331;48.806;9.140;2022-08-11T05:46:01;4.90;;;3.00;;
4636;SDS011;2331;48.806;9.140;2022-08-11T05:48:50;4.33;;;3.13;;
4636;SDS011;2331;48.806;9.140;2022-08-11T05:51:35;3.80;;;2.57;;
4636;SDS011;2331;48.806;9.140;2022-08-11T05:54:23;6.97;;;3.30;;
4636;SDS011;2331;48.806;9.140;2022-08-11T05:59:58;5.07;;;3.50;;
4636;SDS011;2331;48.806;9.140;2022-08-11T06:02:26;7.90;;;3.33;;
4636;SDS011;2331;48.806;9.140;2022-08-11T06:05:11;5.87;;;3.43;;
4636;SDS011;2331;48.806;9.140;2022-08-11T06:07:39;5.17;;;2.87;;
4636;SDS011;2331;48.806;9.140;2022-08-11T06:10:07;6.00;;;3.37;;
4636;SDS011;2331;48.806;9.140;2022-08-11T06:15:30;6.03;;;3.40;;
4636;SDS011;2331;48.806;9.140;2022-08-11T06:17:59;8.43;;;3.70;;
4636;SDS011;2331;48.806;9.140;2022-08-11T06:20:27;6.07;;;3.23;;
4636;SDS011;2331;48.806;9.140;2022-08-11T06:23:01;5.53;;;3.93;;
4636;SDS011;2331;48.806;9.140;2022-08-11T06:25:34;4.43;;;2.93;;
4636;SDS011;2331;48.806;9.140;2022-08-11T06:28:04;5.73;;;3.33;;
4636;SDS011;2331;48.806;9.140;2022-08-11T06:30:34;4.63;;;2.70;;
4636;SDS011;2331;48.806;9.140;2022-08-11T06:33:20;6.00;;;3.30;;
4636;SDS011;2331;48.806;9.140;2022-08-11T06:36:09;5.30;;;3.30;;
4636;SDS011;2331;48.806;9.140;2022-08-11T06:38:58;5.90;;;2.93;;
4636;SDS011;2331;48.806;9.140;2022-08-11T06:41:43;7.60;;;3.47;;
4636;SDS011;2331;48.806;9.140;2022-08-11T06:44:17;4.47;;;3.20;;
4636;SDS011;2331;48.806;9.140;2022-08-11T06:46:52;6.23;;;3.10;;
4636;SDS011;2331;48.806;9.140;2022-08-11T06:49:31;5.73;;;2.77;;
4636;SDS011;2331;48.806;9.140;2022-08-11T06:52:17;6.97;;;3.10;;
4636;SDS011;2331;48.806;9.140;2022-08-11T06:54:57;4.10;;;3.07;;
4636;SDS011;2331;48.806;9.140;2022-08-11T06:57:36;4.87;;;2.97;;
4636;SDS011;2331;48.806;9.140;2022-08-11T07:00:30;9.40;;;3.40;;
4636;SDS011;2331;48.806;9.140;2022-08-11T07:03:05;7.50;;;3.60;;
4636;SDS011;2331;48.806;9.140;2022-08-11T07:05:39;6.57;;;3.53;;
4636;SDS011;2331;48.806;9.140;2022-08-11T07:11:38;6.93;;;3.27;;
4636;SDS011;2331;48.806;9.140;2022-08-11T07:14:45;5.83;;;3.40;;
4636;SDS011;2331;48.806;9.140;2022-08-11T07:17:36;5.27;;;2.87;;
4636;SDS011;2331;48.806;9.140;2022-08-11T07:20:08;7.03;;;3.40;;
4636;SDS011;2331;48.806;9.140;2022-08-11T07:22:55;4.73;;;2.80;;
4636;SDS011;2331;48.806;9.140;2022-08-11T07:25:42;4.40;;;2.93;;
4636;SDS011;2331;48.806;9.140;2022-08-11T07:28:29;4.70;;;3.00;;
4636;SDS011;2331;48.806;9.140;2022-08-11T07:31:17;5.00;;;3.10;;
4636;SDS011;2331;48.806;9.140;2022-08-11T07:33:57;3.83;;;2.70;;
4636;SDS011;2331;48.806;9.140;2022-08-11T07:36:31;6.27;;;3.70;;
4636;SDS011;2331;48.806;9.140;2022-08-11T07:39:03;6.40;;;3.30;;
4636;SDS011;2331;48.806;9.140;2022-08-11T07:41:36;4.33;;;2.93;;
4636;SDS011;2331;48.806;9.140;2022-08-11T07:44:10;5.83;;;3.37;;
4636;SDS011;2331;48.806;9.140;2022-08-11T07:46:40;5.53;;;3.20;;
4636;SDS011;2331;48.806;9.140;2022-08-11T07:49:28;4.90;;;3.40;;
4636;SDS011;2331;48.806;9.140;2022-08-11T07:52:17;4.73;;;3.33;;
4636;SDS011;2331;48.806;9.140;2022-08-11T07:54:58;5.40;;;3.20;;
4636;SDS011;2331;48.806;9.140;2022-08-11T07:57:26;4.37;;;3.07;;
4636;SDS011;2331;48.806;9.140;2022-08-11T08:00:13;4.63;;;3.00;;
4636;SDS011;2331;48.806;9.140;2022-08-11T08:02:58;5.90;;;3.10;;
4636;SDS011;2331;48.806;9.140;2022-08-11T08:05:45;4.63;;;3.17;;
4636;SDS011;2331;48.806;9.140;2022-08-11T08:08:30;4.83;;;2.90;;
4636;SDS011;2331;48.806;9.140;2022-08-11T08:14:27;5.43;;;3.20;;
4636;SDS011;2331;48.806;9.140;2022-08-11T08:17:12;4.30;;;2.77;;
4636;SDS011;2331;48.806;9.140;2022-08-11T08:19:57;5.37;;;3.50;;
4636;SDS011;2331;48.806;9.140;2022-08-11T08:22:26;4.03;;;2.80;;
4636;SDS011;2331;48.806;9.140;2022-08-11T08:24:53;7.93;;;3.37;;
4636;SDS011;2331;48.806;9.140;2022-08-11T08:27:21;4.37;;;2.83;;
4636;SDS011;2331;48.806;9.140;2022-08-11T08:29:50;4.43;;;2.93;;
4636;SDS011;2331;48.806;9.140;2022-08-11T08:32:38;5.30;;;2.90;;
4636;SDS011;2331;48.806;9.140;2022-08-11T08:35:19;5.10;;;3.10;;
4636;SDS011;2331;48.806;9.140;2022-08-11T08:37:49;9.00;;;2.90;;
4636;SDS011;2331;48.806;9.140;2022-08-11T08:40:16;5.47;;;2.90;;
4636;SDS011;2331;48.806;9.140;2022-08-11T08:42:48;5.00;;;2.83;;
4636;SDS011;2331;48.806;9.140;2022-08-11T08:45:19;4.27;;;3.00;;
4636;SDS011;2331;48.806;9.140;2022-08-11T08:47:50;4.60;;;2.90;;
4636;SDS011;2331;48.806;9.140;2022-08-11T08:50:23;6.07;;;2.80;;
4636;SDS011;2331;48.806;9.140;2022-08-11T08:53:14;5.10;;;3.10;;
4636;SDS011;2331;48.806;9.140;2022-08-11T08:55:46;5.30;;;2.67;;
4636;SDS011;2331;48.806;9.140;2022-08-11T08:58:15;4.10;;;2.60;;
4636;SDS011;2331;48.806;9.140;2022-08-11T09:00:46;4.10;;;2.80;;
4636;SDS011;2331;48.806;9.140;2022-08-11T09:03:18;5.07;;;2.93;;
4636;SDS011;2331;48.806;9.140;2022-08-11T09:05:45;7.53;;;3.30;;
4636;SDS011;2331;48.806;9.140;2022-08-11T09:08:17;5.20;;;2.77;;
4636;SDS011;2331;48.806;9.140;2022-08-11T09:10:52;4.00;;;2.90;;
4636;SDS011;2331;48.806;9.140;2022-08-11T09:13:35;5.23;;;2.60;;
4636;SDS011;2331;48.806;9.140;2022-08-11T09:16:08;4.73;;;2.63;;
4636;SDS011;2331;48.806;9.140;2022-08-11T09:18:36;8.63;;;2.67;;
4636;SDS011;2331;48.806;9.140;2022-08-11T09:21:05;5.00;;;2.50;;
4636;SDS011;2331;48.806;9.140;2022-08-11T09:23:35;3.90;;;2.40;;
4636;SDS011;2331;48.806;9.140;2022-08-11T09:26:20;4.37;;;2.63;;
4636;SDS011;2331;48.806;9.140;2022-08-11T09:29:17;8.13;;;2.70;;
4636;SDS011;2331;48.806;9.140;2022-08-11T09:31:44;11.17;;;3.30;;
4636;SDS011;2331;48.806;9.140;2022-08-11T09:34:12;4.50;;;2.60;;
4636;SDS011;2331;48.806;9.140;2022-08-11T09:36:40;7.57;;;2.67;;
4636;SDS011;2331;48.806;9.140;2022-08-11T09:39:28;5.67;;;2.60;;
4636;SDS011;2331;48.806;9.140;2022-08-11T09:42:14;4.40;;;2.50;;
4636;SDS011;2331;48.806;9.140;2022-08-11T09:44:42;6.50;;;2.67;;
4636;SDS011;2331;48.806;9.140;2022-08-11T09:47:19;4.60;;;2.53;;
4636;SDS011;2331;48.806;9.140;2022-08-11T09:49:48;5.43;;;2.33;;
4636;SDS011;2331;48.806;9.140;2022-08-11T09:52:17;6.00;;;2.70;;
4636;SDS011;2331;48.806;9.140;2022-08-11T09:54:47;4.00;;;2.43;;
4636;SDS011;2331;48.806;9.140;2022-08-11T09:57:16;3.53;;;2.50;;
4636;SDS011;2331;48.806;9.140;2022-08-11T10:00:01;4.03;;;2.37;;
4636;SDS011;2331;48.806;9.140;2022-08-11T10:02:30;4.20;;;2.03;;
4636;SDS011;2331;48.806;9.140;2022-08-11T10:04:57;5.60;;;2.40;;
4636;SDS011;2331;48.806;9.140;2022-08-11T10:07:39;2.97;;;2.03;;
4636;SDS011;2331;48.806;9.140;2022-08-11T10:10:24;3.50;;;2.20;;
4636;SDS011;2331;48.806;9.140;2022-08-11T10:12:53;5.23;;;2.40;;
4636;SDS011;2331;48.806;9.140;2022-08-11T10:15:23;3.40;;;2.10;;
4636;SDS011;2331;48.806;9.140;2022-08-11T10:18:01;3.97;;;1.97;;
4636;SDS011;2331;48.806;9.140;2022-08-11T10:20:49;5.93;;;2.13;;
4636;SDS011;2331;48.806;9.140;2022-08-11T10:23:18;4.87;;;2.80;;
4636;SDS011;2331;48.806;9.140;2022-08-11T10:26:06;3.30;;;2.27;;
4636;SDS011;2331;48.806;9.140;2022-08-11T10:28:51;5.50;;;2.30;;
4636;SDS011;2331;48.806;9.140;2022-08-11T10:31:19;4.50;;;1.83;;
4636;SDS011;2331;48.806;9.140;2022-08-11T10:34:05;3.40;;;1.97;;
4636;SDS011;2331;48.806;9.140;2022-08-11T10:36:34;4.00;;;2.20;;
4636;SDS011;2331;48.806;9.140;2022-08-11T10:39:07;4.30;;;2.30;;
4636;SDS011;2331;48.806;9.140;2022-08-11T10:41:42;6.60;;;2.40;;
4636;SDS011;2331;48.806;9.140;2022-08-11T10:44:27;3.90;;;2.27;;
4636;SDS011;2331;48.806;9.140;2022-08-11T10:46:54;3.00;;;2.00;;
4636;SDS011;2331;48.806;9.140;2022-08-11T10:49:39;3.80;;;2.20;;
4636;SDS011;2331;48.806;9.140;2022-08-11T10:52:06;3.53;;;2.17;;
4636;SDS011;2331;48.806;9.140;2022-08-11T10:54:51;4.80;;;2.10;;
4636;SDS011;2331;48.806;9.140;2022-08-11T11:00:43;4.23;;;2.10;;
4636;SDS011;2331;48.806;9.140;2022-08-11T11:03:10;3.70;;;2.40;;
4636;SDS011;2331;48.806;9.140;2022-08-11T11:05:37;4.73;;;2.30;;
4636;SDS011;2331;48.806;9.140;2022-08-11T11:08:08;7.50;;;2.00;;
4636;SDS011;2331;48.806;9.140;2022-08-11T11:10:52;3.53;;;2.20;;
4636;SDS011;2331;48.806;9.140;2022-08-11T11:13:20;3.90;;;2.60;;
4636;SDS011;2331;48.806;9.140;2022-08-11T11:16:07;4.17;;;2.60;;
4636;SDS011;2331;48.806;9.140;2022-08-11T11:19:04;3.53;;;2.20;;
4636;SDS011;2331;48.806;9.140;2022-08-11T11:21:34;3.40;;;2.03;;
4636;SDS011;2331;48.806;9.140;2022-08-11T11:24:06;4.17;;;2.17;;
4636;SDS011;2331;48.806;9.140;2022-08-11T11:26:42;4.17;;;2.10;;
4636;SDS011;2331;48.806;9.140;2022-08-11T11:29:38;5.13;;;2.77;;
4636;SDS011;2331;48.806;9.140;2022-08-11T11:32:19;6.17;;;2.00;;
4636;SDS011;2331;48.806;9.140;2022-08-11T11:35:04;3.37;;;2.00;;
4636;SDS011;2331;48.806;9.140;2022-08-11T11:37:39;3.37;;;2.03;;
4636;SDS011;2331;48.806;9.140;2022-08-11T11:40:07;4.20;;;2.20;;
4636;SDS011;2331;48.806;9.140;2022-08-11T11:42:35;3.53;;;1.90;;
4636;SDS011;2331;48.806;9.140;2022-08-11T11:45:05;5.33;;;2.13;;
4636;SDS011;2331;48.806;9.140;2022-08-11T11:47:34;3.60;;;2.30;;
4636;SDS011;2331;48.806;9.140;2022-08-11T11:50:02;3.10;;;1.83;;
4636;SDS011;2331;48.806;9.140;2022-08-11T11:52:31;4.80;;;1.80;;
4636;SDS011;2331;48.806;9.140;2022-08-11T11:54:58;3.27;;;2.03;;
4636;SDS011;2331;48.806;9.140;2022-08-11T11:57:27;2.80;;;1.90;;
4636;SDS011;2331;48.806;9.140;2022-08-11T12:00:13;4.70;;;2.23;;
4636;SDS011;2331;48.806;9.140;2022-08-11T12:02:59;3.43;;;1.77;;
4636;SDS011;2331;48.806;9.140;2022-08-11T12:05:27;3.87;;;1.80;;
4636;SDS011;2331;48.806;9.140;2022-08-11T12:07:58;5.20;;;2.13;;
4636;SDS011;2331;48.806;9.140;2022-08-11T12:10:40;5.53;;;2.27;;
4636;SDS011;2331;48.806;9.140;2022-08-11T12:13:10;5.43;;;2.20;;
4636;SDS011;2331;48.806;9.140;2022-08-11T12:15:56;4.00;;;2.07;;
4636;SDS011;2331;48.806;9.140;2022-08-11T12:18:28;3.37;;;2.07;;
4636;SDS011;2331;48.806;9.140;2022-08-11T12:20:57;3.60;;;1.93;;
4636;SDS011;2331;48.806;9.140;2022-08-11T12:23:25;3.60;;;2.00;;
4636;SDS011;2331;48.806;9.140;2022-08-11T12:26:09;7.10;;;2.10;;
4636;SDS011;2331;48.806;9.140;2022-08-11T12:28:58;3.43;;;2.23;;
4636;SDS011;2331;48.806;9.140;2022-08-11T12:31:27;4.47;;;2.00;;
4636;SDS011;2331;48.806;9.140;2022-08-11T12:33:58;5.00;;;1.87;;
4636;SDS011;2331;48.806;9.140;2022-08-11T12:36:29;5.70;;;2.13;;
4636;SDS011;2331;48.806;9.140;2022-08-11T12:39:00;3.70;;;1.83;;
4636;SDS011;2331;48.806;9.140;2022-08-11T12:44:39;3.17;;;1.87;;
4636;SDS011;2331;48.806;9.140;2022-08-11T12:47:25;2.60;;;1.80;;
4636;SDS011;2331;48.806;9.140;2022-08-11T12:50:12;3.00;;;1.83;;
4636;SDS011;2331;48.806;9.140;2022-08-11T12:52:56;6.83;;;2.30;;
4636;SDS011;2331;48.806;9.140;2022-08-11T12:55:23;4.07;;;1.80;;
4636;SDS011;2331;48.806;9.140;2022-08-11T12:58:05;3.40;;;2.20;;
4636;SDS011;2331;48.806;9.140;2022-08-11T13:00:45;3.40;;;1.63;;
4636;SDS011;2331;48.806;9.140;2022-08-11T13:03:32;4.33;;;1.90;;
4636;SDS011;2331;48.806;9.140;2022-08-11T13:06:17;3.70;;;2.30;;
4636;SDS011;2331;48.806;9.140;2022-08-11T13:08:48;3.77;;;1.90;;
4636;SDS011;2331;48.806;9.140;2022-08-11T13:11:15;3.33;;;2.20;;
4636;SDS011;2331;48.806;9.140;2022-08-11T13:14:00;3.37;;;1.93;;
4636;SDS011;2331;48.806;9.140;2022-08-11T13:16:29;3.30;;;2.00;;
4636;SDS011;2331;48.806;9.140;2022-08-11T13:19:20;3.40;;;1.90;;
4636;SDS011;2331;48.806;9.140;2022-08-11T13:21:48;2.80;;;1.70;;
4636;SDS011;2331;48.806;9.140;2022-08-11T13:24:16;3.30;;;1.90;;
4636;SDS011;2331;48.806;9.140;2022-08-11T13:26:45;2.97;;;1.73;;
4636;SDS011;2331;48.806;9.140;2022-08-11T13:29:15;4.23;;;2.10;;
4636;SDS011;2331;48.806;9.140;2022-08-11T13:31:44;4.10;;;1.70;;
4636;SDS011;2331;48.806;9.140;2022-08-11T13:34:14;3.60;;;1.80;;
4636;SDS011;2331;48.806;9.140;2022-08-11T13:36:43;3.53;;;1.60;;
4636;SDS011;2331;48.806;9.140;2022-08-11T13:39:10;5.47;;;1.90;;
4636;SDS011;2331;48.806;9.140;2022-08-11T13:41:39;3.20;;;1.77;;
4636;SDS011;2331;48.806;9.140;2022-08-11T13:44:09;3.00;;;1.80;;
4636;SDS011;2331;48.806;9.140;2022-08-11T13:46:38;2.87;;;1.77;;
4636;SDS011;2331;48.806;9.140;2022-08-11T13:49:07;4.03;;;1.97;;
4636;SDS011;2331;48.806;9.140;2022-08-11T13:51:34;2.70;;;1.50;;
4636;SDS011;2331;48.806;9.140;2022-08-11T13:54:04;5.53;;;2.00;;
4636;SDS011;2331;48.806;9.140;2022-08-11T13:56:34;2.83;;;1.80;;
4636;SDS011;2331;48.806;9.140;2022-08-11T13:59:23;2.93;;;1.87;;
4636;SDS011;2331;48.806;9.140;2022-08-11T14:01:51;3.90;;;1.87;;
4636;SDS011;2331;48.806;9.140;2022-08-11T14:04:22;3.50;;;2.10;;
4636;SDS011;2331;48.806;9.140;2022-08-11T14:06:53;3.40;;;1.80;;
4636;SDS011;2331;48.806;9.140;2022-08-11T14:09:27;3.90;;;1.90;;
4636;SDS011;2331;48.806;9.140;2022-08-11T14:11:57;3.10;;;1.80;;
4636;SDS011;2331;48.806;9.140;2022-08-11T14:14:46;3.87;;;2.00;;
4636;SDS011;2331;48.806;9.140;2022-08-11T14:17:16;3.57;;;1.80;;
4636;SDS011;2331;48.806;9.140;2022-08-11T14:19:46;2.80;;;1.67;;
4636;SDS011;2331;48.806;9.140;2022-08-11T14:22:17;3.30;;;1.70;;
4636;SDS011;2331;48.806;9.140;2022-08-11T14:24:47;3.40;;;2.00;;
4636;SDS011;2331;48.806;9.140;2022-08-11T14:27:15;2.23;;;1.47;;
4636;SDS011;2331;48.806;9.140;2022-08-11T14:29:43;4.00;;;2.03;;
4636;SDS011;2331;48.806;9.140;2022-08-11T14:35:05;3.10;;;1.87;;
4636;SDS011;2331;48.806;9.140;2022-08-11T14:37:32;3.20;;;1.90;;
4636;SDS011;2331;48.806;9.140;2022-08-11T14:40:08;4.60;;;1.90;;
4636;SDS011;2331;48.806;9.140;2022-08-11T14:46:30;3.60;;;1.80;;
4636;SDS011;2331;48.806;9.140;2022-08-11T14:49:18;4.17;;;1.93;;
4636;SDS011;2331;48.806;9.140;2022-08-11T14:51:46;2.97;;;1.97;;
4636;SDS011;2331;48.806;9.140;2022-08-11T14:54:14;2.77;;;1.70;;
4636;SDS011;2331;48.806;9.140;2022-08-11T14:57:15;3.13;;;1.90;;
4636;SDS011;2331;48.806;9.140;2022-08-11T14:59:43;3.33;;;1.70;;
4636;SDS011;2331;48.806;9.140;2022-08-11T15:02:13;5.03;;;1.97;;
4636;SDS011;2331;48.806;9.140;2022-08-11T15:04:59;2.93;;;1.60;;
4636;SDS011;2331;48.806;9.140;2022-08-11T15:07:28;2.40;;;1.50;;
4636;SDS011;2331;48.806;9.140;2022-08-11T15:12:55;3.57;;;1.90;;
4636;SDS011;2331;48.806;9.140;2022-08-11T15:15:23;3.20;;;1.90;;
4636;SDS011;2331;48.806;9.140;2022-08-11T15:18:09;4.40;;;2.30;;
4636;SDS011;2331;48.806;9.140;2022-08-11T15:20:38;4.87;;;2.07;;
4636;SDS011;2331;48.806;9.140;2022-08-11T15:23:23;3.90;;;1.70;;
4636;SDS011;2331;48.806;9.140;2022-08-11T15:26:16;3.03;;;1.90;;
4636;SDS011;2331;48.806;9.140;2022-08-11T15:29:09;3.37;;;1.90;;
4636;SDS011;2331;48.806;9.140;2022-08-11T15:31:57;3.27;;;1.60;;
4636;SDS011;2331;48.806;9.140;2022-08-11T15:34:42;4.73;;;1.80;;
4636;SDS011;2331;48.806;9.140;2022-08-11T15:37:50;3.77;;;1.57;;
4636;SDS011;2331;48.806;9.140;2022-08-11T15:40:22;3.27;;;2.03;;
4636;SDS011;2331;48.806;9.140;2022-08-11T15:43:19;4.67;;;1.90;;
4636;SDS011;2331;48.806;9.140;2022-08-11T15:46:16;6.13;;;2.00;;
4636;SDS011;2331;48.806;9.140;2022-08-11T15:48:55;8.80;;;1.63;;
4636;SDS011;2331;48.806;9.140;2022-08-11T15:51:26;3.50;;;1.93;;
4636;SDS011;2331;48.806;9.140;2022-08-11T15:53:58;10.40;;;2.10;;
4636;SDS011;2331;48.806;9.140;2022-08-11T15:56:35;3.33;;;1.70;;
4636;SDS011;2331;48.806;9.140;2022-08-11T15:59:05;5.40;;;2.17;;
4636;SDS011;2331;48.806;9.140;2022-08-11T16:01:54;3.17;;;1.80;;
4636;SDS011;2331;48.806;9.140;2022-08-11T16:04:41;3.70;;;1.53;;
4636;SDS011;2331;48.806;9.140;2022-08-11T16:07:11;4.17;;;1.60;;
4636;SDS011;2331;48.806;9.140;2022-08-11T16:09:40;4.43;;;2.20;;
4636;SDS011;2331;48.806;9.140;2022-08-11T16:12:17;4.20;;;2.00;;
4636;SDS011;2331;48.806;9.140;2022-08-11T16:14:47;3.80;;;1.87;;
4636;SDS011;2331;48.806;9.140;2022-08-11T16:17:36;4.30;;;1.60;;
4636;SDS011;2331;48.806;9.140;2022-08-11T16:20:11;4.63;;;1.50;;
4636;SDS011;2331;48.806;9.140;2022-08-11T16:22:47;3.00;;;1.80;;
4636;SDS011;2331;48.806;9.140;2022-08-11T16:25:16;4.10;;;1.70;;
4636;SDS011;2331;48.806;9.140;2022-08-11T16:27:50;3.97;;;2.00;;
4636;SDS011;2331;48.806;9.140;2022-08-11T16:30:20;4.07;;;2.10;;
4636;SDS011;2331;48.806;9.140;2022-08-11T16:32:49;3.23;;;1.77;;
4636;SDS011;2331;48.806;9.140;2022-08-11T16:35:18;3.97;;;2.07;;
4636;SDS011;2331;48.806;9.140;2022-08-11T16:38:06;3.30;;;1.80;;
4636;SDS011;2331;48.806;9.140;2022-08-11T16:40:52;3.23;;;2.00;;
4636;SDS011;2331;48.806;9.140;2022-08-11T16:43:22;3.50;;;1.83;;
4636;SDS011;2331;48.806;9.140;2022-08-11T16:46:08;3.43;;;1.87;;
4636;SDS011;2331;48.806;9.140;2022-08-11T16:48:58;3.00;;;1.73;;
4636;SDS011;2331;48.806;9.140;2022-08-11T16:51:26;3.00;;;1.63;;
4636;SDS011;2331;48.806;9.140;2022-08-11T16:53:53;3.30;;;1.80;;
4636;SDS011;2331;48.806;9.140;2022-08-11T16:56:22;4.50;;;2.00;;
4636;SDS011;2331;48.806;9.140;2022-08-11T16:58:53;12.03;;;1.60;;
4636;SDS011;2331;48.806;9.140;2022-08-11T17:01:40;3.20;;;1.77;;
4636;SDS011;2331;48.806;9.140;2022-08-11T17:04:13;3.50;;;2.00;;
4636;SDS011;2331;48.806;9.140;2022-08-11T17:07:07;2.80;;;1.50;;
4636;SDS011;2331;48.806;9.140;2022-08-11T17:09:53;3.40;;;1.80;;
4636;SDS011;2331;48.806;9.140;2022-08-11T17:12:40;2.90;;;1.80;;
4636;SDS011;2331;48.806;9.140;2022-08-11T17:15:35;4.00;;;1.80;;
4636;SDS011;2331;48.806;9.140;2022-08-11T17:18:20;2.80;;;1.70;;
4636;SDS011;2331;48.806;9.140;2022-08-11T17:21:04;4.00;;;1.97;;
4636;SDS011;2331;48.806;9.140;2022-08-11T17:23:32;4.00;;;1.60;;
4636;SDS011;2331;48.806;9.140;2022-08-11T17:26:15;3.10;;;1.87;;
4636;SDS011;2331;48.806;9.140;2022-08-11T17:29:18;4.90;;;2.07;;
4636;SDS011;2331;48.806;9.140;2022-08-11T17:31:48;8.20;;;2.17;;
4636;SDS011;2331;48.806;9.140;2022-08-11T17:34:33;5.07;;;1.93;;
4636;SDS011;2331;48.806;9.140;2022-08-11T17:37:19;5.23;;;2.00;;
4636;SDS011;2331;48.806;9.140;2022-08-11T17:39:47;4.50;;;2.27;;
4636;SDS011;2331;48.806;9.140;2022-08-11T17:42:15;6.73;;;2.03;;
4636;SDS011;2331;48.806;9.140;2022-08-11T17:45:01;4.00;;;2.23;;
4636;SDS011;2331;48.806;9.140;2022-08-11T17:47:46;4.27;;;2.20;;
4636;SDS011;2331;48.806;9.140;2022-08-11T17:50:31;3.50;;;1.87;;
4636;SDS011;2331;48.806;9.140;2022-08-11T17:53:02;2.50;;;1.77;;
4636;SDS011;2331;48.806;9.140;2022-08-11T17:55:47;3.60;;;1.80;;
4636;SDS011;2331;48.806;9.140;2022-08-11T17:58:32;3.27;;;1.80;;